sensor_id;sensor_type;location;lat;lon;timestamp;pressure;altitude;pressure_sealevel;temperature;humidity
64095;BME280;50353;51.420;5.682;2023-08-06T00:02:03;100100.69;;;16.05;100.00
64095;BME280;50353;51.420;5.682;2023-08-06T00:04:29;100096.16;;;16.43;100.00
64095;BME280;50353;51.420;5.682;2023-08-06T00:06:54;100103.69;;;16.20;100.00
64095;BME280;50353;51.420;5.682;2023-08-06T00:09:19;100090.38;;;16.20;100.00
64095;BME280;50353;51.420;5.682;2023-08-06T00:11:45;100088.41;;;16.40;100.00
64095;BME280;50353;51.420;5.682;2023-08-06T00:14:12;100091.00;;;16.32;100.00
64095;BME280;50353;51.420;5.682;2023-08-06T00:16:37;100086.41;;;16.24;100.00
64095;BME280;50353;51.420;5.682;2023-08-06T00:19:02;100097.03;;;16.34;100.00
64095;BME280;50353;51.420;5.682;2023-08-06T00:21:27;100087.81;;;16.28;100.00
64095;BME280;50353;51.420;5.682;2023-08-06T00:23:53;100084.69;;;16.33;100.00
64095;BME280;50353;51.420;5.682;2023-08-06T00:26:18;100081.84;;;16.34;100.00
64095;BME280;50353;51.420;5.682;2023-08-06T00:28:44;100081.25;;;16.22;100.00
64095;BME280;50353;51.420;5.682;2023-08-06T00:31:09;100081.34;;;16.31;100.00
64095;BME280;50353;51.420;5.682;2023-08-06T00:33:35;100081.19;;;15.95;100.00
64095;BME280;50353;51.420;5.682;2023-08-06T00:36:00;100071.50;;;16.31;100.00
64095;BME280;50353;51.420;5.682;2023-08-06T00:38:25;100072.41;;;16.40;100.00
64095;BME280;50353;51.420;5.682;2023-08-06T00:40:51;100075.13;;;16.58;99.50
64095;BME280;50353;51.420;5.682;2023-08-06T00:43:16;100073.34;;;16.31;100.00
64095;BME280;50353;51.420;5.682;2023-08-06T00:45:41;100071.50;;;16.31;100.00
64095;BME280;50353;51.420;5.682;2023-08-06T00:48:08;100069.31;;;16.17;100.00
64095;BME280;50353;51.420;5.682;2023-08-06T00:50:33;100070.25;;;16.26;100.00
64095;BME280;50353;51.420;5.682;2023-08-06T00:52:59;100065.59;;;16.28;100.00
64095;BME280;50353;51.420;5.682;2023-08-06T00:55:24;100069.47;;;16.15;100.00
64095;BME280;50353;51.420;5.682;2023-08-06T00:57:50;100064.78;;;16.27;100.00
64095;BME280;50353;51.420;5.682;2023-08-06T01:00:16;100061.41;;;16.25;100.00
64095;BME280;50353;51.420;5.682;2023-08-06T01:02:41;100065.75;;;16.26;100.00
64095;BME280;50353;51.420;5.682;2023-08-06T01:05:07;100059.19;;;16.20;100.00
64095;BME280;50353;51.420;5.682;2023-08-06T01:13:33;100061.41;;;16.25;100.00
64095;BME280;50353;51.420;5.682;2023-08-06T01:16:03;100065.59;;;16.28;100.00
64095;BME280;50353;51.420;5.682;2023-08-06T01:18:30;100055.00;;;16.18;100.00
64095;BME280;50353;51.420;5.682;2023-08-06T01:20:56;100051.75;;;16.24;100.00
64095;BME280;50353;51.420;5.682;2023-08-06T01:23:22;100053.28;;;16.27;100.00
64095;BME280;50353;51.420;5.682;2023-08-06T01:26:00;100045.19;;;16.18;100.00
64095;BME280;50353;51.420;5.682;2023-08-06T01:31:35;100054.59;;;16.13;100.00
64095;BME280;50353;51.420;5.682;2023-08-06T01:34:04;100049.91;;;16.25;100.00
64095;BME280;50353;51.420;5.682;2023-08-06T01:36:30;100064.34;;;16.04;100.00
64095;BME280;50353;51.420;5.682;2023-08-06T01:38:55;100062.00;;;16.19;100.00
64095;BME280;50353;51.420;5.682;2023-08-06T01:41:22;100054.69;;;16.21;100.00
64095;BME280;50353;51.420;5.682;2023-08-06T01:43:47;100058.94;;;15.86;100.00
64095;BME280;50353;51.420;5.682;2023-08-06T01:46:12;100054.59;;;15.85;100.00
64095;BME280;50353;51.420;5.682;2023-08-06T01:48:38;100052.84;;;15.94;100.00
64095;BME280;50353;51.420;5.682;2023-08-06T01:51:06;100050.44;;;16.10;100.00
64095;BME280;50353;51.420;5.682;2023-08-06T01:53:32;100061.75;;;16.12;100.00
64095;BME280;50353;51.420;5.682;2023-08-06T01:55:57;100062.78;;;16.01;100.00
64095;BME280;50353;51.420;5.682;2023-08-06T01:58:23;100051.00;;;16.04;100.00
64095;BME280;50353;51.420;5.682;2023-08-06T02:00:48;100045.81;;;16.02;100.00
64095;BME280;50353;51.420;5.682;2023-08-06T02:03:13;100054.91;;;15.72;100.00
64095;BME280;50353;51.420;5.682;2023-08-06T02:05:40;100057.81;;;15.69;100.00
64095;BME280;50353;51.420;5.682;2023-08-06T02:08:05;100054.28;;;15.78;100.00
64095;BME280;50353;51.420;5.682;2023-08-06T02:10:30;100057.94;;;15.77;100.00
64095;BME280;50353;51.420;5.682;2023-08-06T02:12:55;100056.06;;;15.50;100.00
64095;BME280;50353;51.420;5.682;2023-08-06T02:15:21;100057.41;;;15.83;100.00
64095;BME280;50353;51.420;5.682;2023-08-06T02:17:46;100054.19;;;15.70;100.00
64095;BME280;50353;51.420;5.682;2023-08-06T02:20:11;100050.84;;;15.68;100.00
64095;BME280;50353;51.420;5.682;2023-08-06T02:22:36;100054.44;;;15.77;100.00
64095;BME280;50353;51.420;5.682;2023-08-06T02:25:02;100056.84;;;15.70;100.00
64095;BME280;50353;51.420;5.682;2023-08-06T02:27:27;100050.16;;;15.56;100.00
64095;BME280;50353;51.420;5.682;2023-08-06T02:29:52;100045.41;;;15.50;100.00
64095;BME280;50353;51.420;5.682;2023-08-06T02:32:18;100045.78;;;15.65;100.00
64095;BME280;50353;51.420;5.682;2023-08-06T02:34:43;100046.22;;;15.60;100.00
64095;BME280;50353;51.420;5.682;2023-08-06T02:37:08;100042.34;;;15.45;100.00
64095;BME280;50353;51.420;5.682;2023-08-06T02:39:34;100042.47;;;15.43;100.00
64095;BME280;50353;51.420;5.682;2023-08-06T02:42:00;100040.69;;;15.24;100.00
64095;BME280;50353;51.420;5.682;2023-08-06T02:44:29;100040.94;;;15.50;100.00
64095;BME280;50353;51.420;5.682;2023-08-06T02:46:54;100039.81;;;15.53;100.00
64095;BME280;50353;51.420;5.682;2023-08-06T02:49:19;100040.63;;;15.53;100.00
64095;BME280;50353;51.420;5.682;2023-08-06T02:51:45;100036.66;;;15.67;100.00
64095;BME280;50353;51.420;5.682;2023-08-06T02:54:10;100037.97;;;15.53;100.00
64095;BME280;50353;51.420;5.682;2023-08-06T02:56:36;100032.28;;;15.29;100.00
64095;BME280;50353;51.420;5.682;2023-08-06T02:59:01;100030.66;;;15.55;100.00
64095;BME280;50353;51.420;5.682;2023-08-06T03:01:26;100028.13;;;15.64;100.00
64095;BME280;50353;51.420;5.682;2023-08-06T03:03:53;100024.28;;;15.38;100.00
64095;BME280;50353;51.420;5.682;2023-08-06T03:06:18;100024.28;;;15.29;100.00
64095;BME280;50353;51.420;5.682;2023-08-06T03:08:44;100030.19;;;15.23;100.00
64095;BME280;50353;51.420;5.682;2023-08-06T03:11:09;100026.66;;;15.32;100.00
64095;BME280;50353;51.420;5.682;2023-08-06T03:13:35;100027.72;;;15.59;100.00
64095;BME280;50353;51.420;5.682;2023-08-06T03:16:01;100025.28;;;15.75;100.00
64095;BME280;50353;51.420;5.682;2023-08-06T03:18:26;100030.19;;;15.70;100.00
64095;BME280;50353;51.420;5.682;2023-08-06T03:20:51;100019.03;;;15.57;100.00
64095;BME280;50353;51.420;5.682;2023-08-06T03:23:17;100027.03;;;15.57;100.00
64095;BME280;50353;51.420;5.682;2023-08-06T03:25:43;100028.78;;;15.38;100.00
64095;BME280;50353;51.420;5.682;2023-08-06T03:28:08;100029.69;;;15.57;100.00
64095;BME280;50353;51.420;5.682;2023-08-06T03:30:33;100027.72;;;15.59;100.00
64095;BME280;50353;51.420;5.682;2023-08-06T03:32:59;100028.25;;;15.72;100.00
64095;BME280;50353;51.420;5.682;2023-08-06T03:35:24;100025.59;;;15.62;100.00
64095;BME280;50353;51.420;5.682;2023-08-06T03:37:49;100022.56;;;15.57;100.00
64095;BME280;50353;51.420;5.682;2023-08-06T03:40:15;100019.75;;;15.59;100.00
64095;BME280;50353;51.420;5.682;2023-08-06T03:42:40;100023.50;;;15.66;100.00
64095;BME280;50353;51.420;5.682;2023-08-06T03:45:06;100022.19;;;15.80;100.00
64095;BME280;50353;51.420;5.682;2023-08-06T03:47:32;100023.03;;;15.70;100.00
64095;BME280;50353;51.420;5.682;2023-08-06T03:49:57;100029.22;;;15.71;100.00
64095;BME280;50353;51.420;5.682;2023-08-06T03:52:23;100018.59;;;15.61;100.00
64095;BME280;50353;51.420;5.682;2023-08-06T03:54:48;100029.38;;;15.69;100.00
64095;BME280;50353;51.420;5.682;2023-08-06T03:57:13;100017.06;;;15.59;100.00
64095;BME280;50353;51.420;5.682;2023-08-06T03:59:39;100023.72;;;15.35;100.00
64095;BME280;50353;51.420;5.682;2023-08-06T04:02:04;100020.56;;;15.59;100.00
64095;BME280;50353;51.420;5.682;2023-08-06T04:04:29;100021.38;;;15.60;100.00
64095;BME280;50353;51.420;5.682;2023-08-06T04:06:55;100023.34;;;15.67;100.00
64095;BME280;50353;51.420;5.682;2023-08-06T04:09:20;100021.38;;;15.60;100.00
64095;BME280;50353;51.420;5.682;2023-08-06T04:11:45;100029.53;;;15.68;100.00
64095;BME280;50353;51.420;5.682;2023-08-06T04:14:11;100033.84;;;15.69;100.00
64095;BME280;50353;51.420;5.682;2023-08-06T04:16:36;100030.63;;;15.75;100.00
64095;BME280;50353;51.420;5.682;2023-08-06T04:19:01;100031.34;;;15.67;100.00
64095;BME280;50353;51.420;5.682;2023-08-06T04:21:26;100034.72;;;15.60;100.00
64095;BME280;50353;51.420;5.682;2023-08-06T04:23:52;100039.19;;;15.69;100.00
64095;BME280;50353;51.420;5.682;2023-08-06T04:26:17;100050.31;;;15.54;100.00
64095;BME280;50353;51.420;5.682;2023-08-06T04:28:42;100051.53;;;15.70;100.00
64095;BME280;50353;51.420;5.682;2023-08-06T04:31:07;100053.63;;;15.76;100.00
64095;BME280;50353;51.420;5.682;2023-08-06T04:33:33;100047.88;;;15.71;100.00
64095;BME280;50353;51.420;5.682;2023-08-06T04:35:59;100046.38;;;15.59;100.00
64095;BME280;50353;51.420;5.682;2023-08-06T04:38:24;100058.84;;;15.58;100.00
64095;BME280;50353;51.420;5.682;2023-08-06T04:40:52;100053.97;;;15.44;100.00
64095;BME280;50353;51.420;5.682;2023-08-06T04:43:18;100054.41;;;15.39;100.00
64095;BME280;50353;51.420;5.682;2023-08-06T04:45:47;100056.50;;;15.45;100.00
64095;BME280;50353;51.420;5.682;2023-08-06T04:48:13;100055.91;;;15.61;100.00
64095;BME280;50353;51.420;5.682;2023-08-06T04:50:38;100053.34;;;15.60;100.00
64095;BME280;50353;51.420;5.682;2023-08-06T04:53:03;100057.56;;;15.72;100.00
64095;BME280;50353;51.420;5.682;2023-08-06T04:55:28;100057.81;;;15.69;100.00
64095;BME280;50353;51.420;5.682;2023-08-06T04:57:54;100063.31;;;15.67;100.00
64095;BME280;50353;51.420;5.682;2023-08-06T05:00:19;100054.34;;;15.68;100.00
64095;BME280;50353;51.420;5.682;2023-08-06T05:02:44;100060.19;;;15.92;100.00
64095;BME280;50353;51.420;5.682;2023-08-06T05:05:09;100060.91;;;15.74;100.00
64095;BME280;50353;51.420;5.682;2023-08-06T05:07:35;100063.81;;;15.91;100.00
64095;BME280;50353;51.420;5.682;2023-08-06T05:10:00;100067.22;;;15.83;100.00
64095;BME280;50353;51.420;5.682;2023-08-06T05:12:25;100066.66;;;15.79;100.00
64095;BME280;50353;51.420;5.682;2023-08-06T05:14:50;100072.00;;;15.60;100.00
64095;BME280;50353;51.420;5.682;2023-08-06T05:17:16;100078.03;;;15.62;100.00
64095;BME280;50353;51.420;5.682;2023-08-06T05:19:41;100076.75;;;15.76;100.00
64095;BME280;50353;51.420;5.682;2023-08-06T05:22:06;100086.84;;;15.92;100.00
64095;BME280;50353;51.420;5.682;2023-08-06T05:24:31;100086.56;;;15.85;100.00
64095;BME280;50353;51.420;5.682;2023-08-06T05:26:57;100083.19;;;15.93;100.00
64095;BME280;50353;51.420;5.682;2023-08-06T05:29:22;100093.25;;;15.99;100.00
64095;BME280;50353;51.420;5.682;2023-08-06T05:31:47;100091.56;;;15.98;100.00
64095;BME280;50353;51.420;5.682;2023-08-06T05:34:13;100086.22;;;15.98;100.00
64095;BME280;50353;51.420;5.682;2023-08-06T05:36:38;100088.25;;;15.76;100.00
64095;BME280;50353;51.420;5.682;2023-08-06T05:39:03;100097.59;;;16.00;100.00
64095;BME280;50353;51.420;5.682;2023-08-06T05:41:28;100104.47;;;16.02;100.00
64095;BME280;50353;51.420;5.682;2023-08-06T05:43:54;100106.28;;;16.02;100.00
64095;BME280;50353;51.420;5.682;2023-08-06T05:46:19;100111.19;;;16.07;100.00
64095;BME280;50353;51.420;5.682;2023-08-06T05:48:44;100106.06;;;16.23;100.00
64095;BME280;50353;51.420;5.682;2023-08-06T05:51:09;100115.28;;;16.01;100.00
64095;BME280;50353;51.420;5.682;2023-08-06T05:53:37;100109.19;;;16.18;100.00
64095;BME280;50353;51.420;5.682;2023-08-06T05:56:03;100114.47;;;16.28;100.00
64095;BME280;50353;51.420;5.682;2023-08-06T05:58:28;100111.44;;;16.41;100.00
64095;BME280;50353;51.420;5.682;2023-08-06T06:00:55;100118.22;;;16.35;100.00
64095;BME280;50353;51.420;5.682;2023-08-06T06:03:21;100122.75;;;16.25;100.00
64095;BME280;50353;51.420;5.682;2023-08-06T06:05:46;100130.72;;;16.35;100.00
64095;BME280;50353;51.420;5.682;2023-08-06T06:08:11;100128.22;;;16.33;100.00
64095;BME280;50353;51.420;5.682;2023-08-06T06:10:36;100139.41;;;16.37;100.00
64095;BME280;50353;51.420;5.682;2023-08-06T06:13:02;100139.09;;;16.40;100.00
64095;BME280;50353;51.420;5.682;2023-08-06T06:15:27;100138.44;;;16.38;100.00
64095;BME280;50353;51.420;5.682;2023-08-06T06:17:52;100143.47;;;16.41;100.00
64095;BME280;50353;51.420;5.682;2023-08-06T06:20:18;100150.88;;;16.47;100.00
64095;BME280;50353;51.420;5.682;2023-08-06T06:22:43;100152.06;;;16.35;100.00
64095;BME280;50353;51.420;5.682;2023-08-06T06:25:08;100160.75;;;16.37;100.00
64095;BME280;50353;51.420;5.682;2023-08-06T06:27:35;100167.47;;;16.41;100.00
64095;BME280;50353;51.420;5.682;2023-08-06T06:30:00;100168.28;;;16.51;100.00
64095;BME280;50353;51.420;5.682;2023-08-06T06:32:25;100176.06;;;16.35;100.00
64095;BME280;50353;51.420;5.682;2023-08-06T06:34:51;100175.00;;;16.55;100.00
64095;BME280;50353;51.420;5.682;2023-08-06T06:37:16;100182.13;;;16.65;100.00
64095;BME280;50353;51.420;5.682;2023-08-06T06:39:41;100177.81;;;16.54;100.00
64095;BME280;50353;51.420;5.682;2023-08-06T06:42:06;100184.97;;;16.81;100.00
64095;BME280;50353;51.420;5.682;2023-08-06T06:44:32;100186.91;;;16.89;100.00
64095;BME280;50353;51.420;5.682;2023-08-06T06:46:57;100180.59;;;16.90;100.00
64095;BME280;50353;51.420;5.682;2023-08-06T06:49:22;100184.56;;;17.04;100.00
64095;BME280;50353;51.420;5.682;2023-08-06T06:51:47;100186.97;;;17.07;99.60
64095;BME280;50353;51.420;5.682;2023-08-06T06:54:13;100192.91;;;17.19;100.00
64095;BME280;50353;51.420;5.682;2023-08-06T06:56:38;100191.84;;;17.12;100.00
64095;BME280;50353;51.420;5.682;2023-08-06T06:59:03;100201.38;;;16.86;100.00
64095;BME280;50353;51.420;5.682;2023-08-06T07:01:29;100199.97;;;16.82;100.00
64095;BME280;50353;51.420;5.682;2023-08-06T07:03:54;100197.44;;;16.90;100.00
64095;BME280;50353;51.420;5.682;2023-08-06T07:06:19;100200.09;;;16.90;100.00
64095;BME280;50353;51.420;5.682;2023-08-06T07:08:45;100200.41;;;17.33;99.40
64095;BME280;50353;51.420;5.682;2023-08-06T07:11:10;100198.25;;;17.55;98.02
64095;BME280;50353;51.420;5.682;2023-08-06T07:13:36;100198.84;;;17.67;96.96
64095;BME280;50353;51.420;5.682;2023-08-06T07:16:01;100191.84;;;17.66;96.65
64095;BME280;50353;51.420;5.682;2023-08-06T07:18:26;100205.81;;;17.96;95.66
64095;BME280;50353;51.420;5.682;2023-08-06T07:20:53;100207.31;;;17.80;94.37
64095;BME280;50353;51.420;5.682;2023-08-06T07:23:24;100210.72;;;17.64;95.50
64095;BME280;50353;51.420;5.682;2023-08-06T07:25:49;100212.38;;;17.47;95.74
64095;BME280;50353;51.420;5.682;2023-08-06T07:28:16;100221.31;;;17.74;94.66
64095;BME280;50353;51.420;5.682;2023-08-06T07:30:42;100223.16;;;17.55;96.07
64095;BME280;50353;51.420;5.682;2023-08-06T07:33:08;100230.06;;;17.12;99.43
64095;BME280;50353;51.420;5.682;2023-08-06T07:35:34;100225.34;;;17.24;99.70
64095;BME280;50353;51.420;5.682;2023-08-06T07:38:00;100230.91;;;17.13;100.00
64095;BME280;50353;51.420;5.682;2023-08-06T07:40:25;100233.16;;;17.53;97.93
64095;BME280;50353;51.420;5.682;2023-08-06T07:42:51;100230.47;;;17.71;96.23
64095;BME280;50353;51.420;5.682;2023-08-06T07:45:16;100244.28;;;17.67;92.82
64095;BME280;50353;51.420;5.682;2023-08-06T07:47:41;100248.31;;;17.17;96.38
64095;BME280;50353;51.420;5.682;2023-08-06T07:50:08;100246.19;;;16.93;96.15
64095;BME280;50353;51.420;5.682;2023-08-06T07:52:34;100256.72;;;16.94;95.84
64095;BME280;50353;51.420;5.682;2023-08-06T07:54:59;100254.56;;;17.08;94.31
64095;BME280;50353;51.420;5.682;2023-08-06T07:57:25;100253.06;;;16.10;99.93
64095;BME280;50353;51.420;5.682;2023-08-06T07:59:51;100259.06;;;16.12;100.00
64095;BME280;50353;51.420;5.682;2023-08-06T08:02:16;100263.38;;;16.33;100.00
64095;BME280;50353;51.420;5.682;2023-08-06T08:04:41;100269.03;;;16.00;100.00
64095;BME280;50353;51.420;5.682;2023-08-06T08:07:06;100271.69;;;16.30;100.00
64095;BME280;50353;51.420;5.682;2023-08-06T08:09:34;100272.31;;;16.51;98.82
64095;BME280;50353;51.420;5.682;2023-08-06T08:11:59;100273.78;;;16.26;99.19
64095;BME280;50353;51.420;5.682;2023-08-06T08:14:26;100282.34;;;16.30;98.93
64095;BME280;50353;51.420;5.682;2023-08-06T08:16:51;100282.94;;;16.14;100.00
64095;BME280;50353;51.420;5.682;2023-08-06T08:19:16;100294.41;;;15.75;100.00
64095;BME280;50353;51.420;5.682;2023-08-06T08:21:41;100293.06;;;15.81;100.00
64095;BME280;50353;51.420;5.682;2023-08-06T08:24:07;100290.75;;;16.25;98.96
64095;BME280;50353;51.420;5.682;2023-08-06T08:26:33;100289.34;;;16.41;98.18
64095;BME280;50353;51.420;5.682;2023-08-06T08:28:58;100302.38;;;15.55;100.00
64095;BME280;50353;51.420;5.682;2023-08-06T08:31:23;100302.22;;;15.37;100.00
64095;BME280;50353;51.420;5.682;2023-08-06T08:33:49;100303.63;;;15.42;100.00
64095;BME280;50353;51.420;5.682;2023-08-06T08:36:14;100302.97;;;15.69;100.00
64095;BME280;50353;51.420;5.682;2023-08-06T08:38:39;100306.09;;;16.03;100.00
64095;BME280;50353;51.420;5.682;2023-08-06T08:41:05;100310.94;;;15.69;100.00
64095;BME280;50353;51.420;5.682;2023-08-06T08:43:31;100318.25;;;15.57;100.00
64095;BME280;50353;51.420;5.682;2023-08-06T08:45:57;100320.19;;;15.45;100.00
64095;BME280;50353;51.420;5.682;2023-08-06T08:48:26;100319.63;;;15.51;100.00
64095;BME280;50353;51.420;5.682;2023-08-06T08:50:52;100323.88;;;15.74;100.00
64095;BME280;50353;51.420;5.682;2023-08-06T08:53:18;100331.81;;;15.54;100.00
64095;BME280;50353;51.420;5.682;2023-08-06T08:55:47;100338.38;;;15.40;100.00
64095;BME280;50353;51.420;5.682;2023-08-06T08:58:13;100328.28;;;15.34;100.00
64095;BME280;50353;51.420;5.682;2023-08-06T09:00:40;100329.94;;;15.85;100.00
64095;BME280;50353;51.420;5.682;2023-08-06T09:03:07;100339.16;;;15.71;100.00
64095;BME280;50353;51.420;5.682;2023-08-06T09:05:33;100349.16;;;15.99;100.00
64095;BME280;50353;51.420;5.682;2023-08-06T09:08:03;100347.06;;;15.93;100.00
64095;BME280;50353;51.420;5.682;2023-08-06T09:10:29;100351.88;;;15.48;100.00
64095;BME280;50353;51.420;5.682;2023-08-06T09:12:55;100362.75;;;15.76;100.00
64095;BME280;50353;51.420;5.682;2023-08-06T09:15:24;100359.06;;;15.77;100.00
64095;BME280;50353;51.420;5.682;2023-08-06T09:17:50;100362.59;;;15.68;100.00
64095;BME280;50353;51.420;5.682;2023-08-06T09:20:15;100371.06;;;16.02;100.00
64095;BME280;50353;51.420;5.682;2023-08-06T09:22:41;100363.50;;;16.17;100.00
64095;BME280;50353;51.420;5.682;2023-08-06T09:25:07;100368.22;;;16.53;97.39
64095;BME280;50353;51.420;5.682;2023-08-06T09:27:36;100373.56;;;16.53;97.01
64095;BME280;50353;51.420;5.682;2023-08-06T09:30:02;100381.44;;;16.15;100.00
64095;BME280;50353;51.420;5.682;2023-08-06T09:32:44;100374.72;;;16.41;98.43
64095;BME280;50353;51.420;5.682;2023-08-06T09:35:15;100379.31;;;15.80;100.00
64095;BME280;50353;51.420;5.682;2023-08-06T09:37:40;100383.25;;;16.34;98.99
64095;BME280;50353;51.420;5.682;2023-08-06T09:40:30;100380.28;;;16.67;96.30
64095;BME280;50353;51.420;5.682;2023-08-06T09:42:56;100382.31;;;16.06;100.00
64095;BME280;50353;51.420;5.682;2023-08-06T09:45:22;100387.06;;;16.51;98.90
64095;BME280;50353;51.420;5.682;2023-08-06T09:47:55;100382.69;;;16.21;99.73
64095;BME280;50353;51.420;5.682;2023-08-06T09:50:21;100394.34;;;16.49;99.07
64095;BME280;50353;51.420;5.682;2023-08-06T09:52:47;100389.84;;;16.60;100.00
64095;BME280;50353;51.420;5.682;2023-08-06T09:55:14;100390.53;;;16.91;98.74
64095;BME280;50353;51.420;5.682;2023-08-06T09:57:41;100398.41;;;16.73;100.00
64095;BME280;50353;51.420;5.682;2023-08-06T10:00:08;100393.56;;;16.86;99.29
64095;BME280;50353;51.420;5.682;2023-08-06T10:02:35;100397.78;;;17.09;96.57
64095;BME280;50353;51.420;5.682;2023-08-06T10:05:02;100397.56;;;16.92;98.36
64095;BME280;50353;51.420;5.682;2023-08-06T10:07:29;100398.25;;;17.60;93.92
64095;BME280;50353;51.420;5.682;2023-08-06T10:09:55;100406.66;;;17.37;93.49
64095;BME280;50353;51.420;5.682;2023-08-06T10:12:21;100416.50;;;16.79;96.76
64095;BME280;50353;51.420;5.682;2023-08-06T10:14:47;100410.78;;;17.21;95.97
64095;BME280;50353;51.420;5.682;2023-08-06T10:17:14;100417.09;;;17.30;94.89
64095;BME280;50353;51.420;5.682;2023-08-06T10:19:39;100417.81;;;17.22;95.67
64095;BME280;50353;51.420;5.682;2023-08-06T10:22:11;100419.16;;;17.36;93.36
64095;BME280;50353;51.420;5.682;2023-08-06T10:24:48;100419.56;;;17.04;95.85
64095;BME280;50353;51.420;5.682;2023-08-06T10:27:13;100417.06;;;17.40;93.41
64095;BME280;50353;51.420;5.682;2023-08-06T10:29:39;100434.53;;;16.38;98.82
64095;BME280;50353;51.420;5.682;2023-08-06T10:32:04;100428.88;;;16.90;96.78
64095;BME280;50353;51.420;5.682;2023-08-06T10:34:55;100431.66;;;16.88;96.65
64095;BME280;50353;51.420;5.682;2023-08-06T10:37:22;100430.25;;;16.84;96.71
64095;BME280;50353;51.420;5.682;2023-08-06T10:39:50;100424.94;;;16.94;96.43
64095;BME280;50353;51.420;5.682;2023-08-06T10:42:20;100432.59;;;17.17;93.42
64095;BME280;50353;51.420;5.682;2023-08-06T10:45:11;100441.09;;;16.73;96.21
64095;BME280;50353;51.420;5.682;2023-08-06T10:47:38;100444.34;;;16.57;98.70
64095;BME280;50353;51.420;5.682;2023-08-06T10:50:06;100446.84;;;16.78;97.93
64095;BME280;50353;51.420;5.682;2023-08-06T10:52:32;100451.50;;;16.76;96.22
64095;BME280;50353;51.420;5.682;2023-08-06T10:54:58;100445.88;;;16.60;96.64
64095;BME280;50353;51.420;5.682;2023-08-06T10:57:23;100443.59;;;17.04;94.57
64095;BME280;50353;51.420;5.682;2023-08-06T10:59:49;100452.88;;;17.00;93.78
64095;BME280;50353;51.420;5.682;2023-08-06T11:02:14;100456.28;;;16.92;95.90
64095;BME280;50353;51.420;5.682;2023-08-06T11:04:40;100463.72;;;16.79;93.72
64095;BME280;50353;51.420;5.682;2023-08-06T11:07:06;100462.03;;;16.29;97.32
64095;BME280;50353;51.420;5.682;2023-08-06T11:09:32;100471.72;;;16.49;98.63
64095;BME280;50353;51.420;5.682;2023-08-06T11:11:57;100472.16;;;16.54;96.29
64095;BME280;50353;51.420;5.682;2023-08-06T11:14:22;100470.44;;;16.63;96.20
64095;BME280;50353;51.420;5.682;2023-08-06T11:16:48;100464.13;;;16.74;94.97
64095;BME280;50353;51.420;5.682;2023-08-06T11:19:13;100476.06;;;16.70;96.22
64095;BME280;50353;51.420;5.682;2023-08-06T11:21:41;100479.19;;;16.55;98.25
64095;BME280;50353;51.420;5.682;2023-08-06T11:24:10;100476.19;;;16.19;99.57
64095;BME280;50353;51.420;5.682;2023-08-06T11:26:36;100479.13;;;16.07;100.00
64095;BME280;50353;51.420;5.682;2023-08-06T11:29:02;100477.78;;;16.51;100.00
64095;BME280;50353;51.420;5.682;2023-08-06T11:31:28;100477.50;;;16.35;99.22
64095;BME280;50353;51.420;5.682;2023-08-06T11:33:54;100480.84;;;16.96;95.96
64095;BME280;50353;51.420;5.682;2023-08-06T11:36:33;100487.75;;;16.98;96.18
64095;BME280;50353;51.420;5.682;2023-08-06T11:39:03;100487.44;;;16.82;96.64
64095;BME280;50353;51.420;5.682;2023-08-06T11:41:30;100493.06;;;16.49;98.68
64095;BME280;50353;51.420;5.682;2023-08-06T11:43:56;100489.84;;;16.75;99.15
64095;BME280;50353;51.420;5.682;2023-08-06T11:46:22;100492.81;;;16.92;97.45
64095;BME280;50353;51.420;5.682;2023-08-06T11:48:55;100488.16;;;16.84;98.90
64095;BME280;50353;51.420;5.682;2023-08-06T11:51:26;100489.81;;;17.14;96.37
64095;BME280;50353;51.420;5.682;2023-08-06T11:53:56;100495.75;;;16.98;98.32
64095;BME280;50353;51.420;5.682;2023-08-06T11:56:21;100491.59;;;17.33;96.57
64095;BME280;50353;51.420;5.682;2023-08-06T11:58:59;100489.47;;;17.47;95.25
64095;BME280;50353;51.420;5.682;2023-08-06T12:01:28;100484.19;;;17.17;96.60
64095;BME280;50353;51.420;5.682;2023-08-06T12:04:03;100493.22;;;16.77;97.64
64095;BME280;50353;51.420;5.682;2023-08-06T12:06:41;100496.19;;;16.94;98.07
64095;BME280;50353;51.420;5.682;2023-08-06T12:09:08;100492.41;;;17.44;95.56
64095;BME280;50353;51.420;5.682;2023-08-06T12:11:33;100480.84;;;17.15;96.92
64095;BME280;50353;51.420;5.682;2023-08-06T12:13:59;100496.09;;;17.70;94.25
64095;BME280;50353;51.420;5.682;2023-08-06T12:16:24;100498.75;;;17.33;97.49
64095;BME280;50353;51.420;5.682;2023-08-06T12:18:50;100485.56;;;17.31;97.29
64095;BME280;50353;51.420;5.682;2023-08-06T12:21:15;100480.72;;;17.45;96.66
64095;BME280;50353;51.420;5.682;2023-08-06T12:23:40;100491.66;;;17.89;94.21
64095;BME280;50353;51.420;5.682;2023-08-06T12:26:06;100501.69;;;18.15;95.58
64095;BME280;50353;51.420;5.682;2023-08-06T12:28:31;100506.50;;;18.11;93.34
64095;BME280;50353;51.420;5.682;2023-08-06T12:30:56;100506.84;;;18.44;92.32
64095;BME280;50353;51.420;5.682;2023-08-06T12:33:22;100507.06;;;18.33;92.85
64095;BME280;50353;51.420;5.682;2023-08-06T12:35:47;100507.56;;;17.90;94.88
64095;BME280;50353;51.420;5.682;2023-08-06T12:38:12;100500.75;;;18.06;92.96
64095;BME280;50353;51.420;5.682;2023-08-06T12:40:38;100499.34;;;18.48;92.62
64095;BME280;50353;51.420;5.682;2023-08-06T12:43:04;100502.69;;;18.50;92.86
64095;BME280;50353;51.420;5.682;2023-08-06T12:45:29;100515.03;;;18.61;91.54
64095;BME280;50353;51.420;5.682;2023-08-06T12:48:01;100512.41;;;18.87;88.08